Have a Safe July 4th! 

Flight Track Log - Related Links

Times and Time Zones

All times are in EDT time to prevent confusion due to time zone crossing. See the EJA396 flight status page for this flight to view local times or setup timezone preferences in your user account.

Time Position Orientation Groundspeed Altitude Reporting Facility
EDT Latitude Longitude Course Direction KTS MPH feet Rate Location/Type
Tue 02:12:05 PM 43.5750 -110.7583 239° Southwest 224 258 8,200  Level Salt Lake Center
Tue 02:13:07 PM 43.5111 -110.8003 205° Southwest 253 291 11,700 3,677 Climbing Salt Lake Center
Tue 02:14:09 PM 43.4394 -110.8461 205° Southwest 275 316 15,800 3,484 Climbing Salt Lake Center
Tue 02:15:11 PM 43.3714 -110.9114 215° Southwest 302 348 18,900 2,952 Climbing Salt Lake Center
Tue 02:16:00 PM 43.2918 -111.4762 240° Southwest  Level Estimated
Tue 02:16:13 PM 43.3319 -111.0097 241° Southwest 300 345 21,900  Level Salt Lake Center
Tue 02:17:00 PM 43.2387 -111.5986 239° Southwest  Level Estimated
Tue 02:17:15 PM 43.2839 -111.1219 240° Southwest 304 350 25,000  Level Salt Lake Center
Tue 02:18:17 PM 43.2417 -111.2228 240° Southwest 317 365 27,400 2,371 Climbing Salt Lake Center
Tue 02:19:19 PM 43.1903 -111.3431 240° Southwest 326 375 29,900 2,274 Climbing Salt Lake Center
Tue 02:20:21 PM 43.1472 -111.4436 240° Southwest 323 372 32,100 2,323 Climbing Salt Lake Center
Tue 02:21:23 PM 43.0983 -111.5561 239° Southwest 311 358 34,700 2,274 Climbing Salt Lake Center
Tue 02:22:25 PM 43.0572 -111.6531 240° Southwest 309 356 36,800 2,081 Climbing Salt Lake Center
Tue 02:23:27 PM 43.0125 -111.7572 240° Southwest 291 335 39,000 1,548 Climbing Salt Lake Center
Tue 02:24:29 PM 42.9753 -111.8419 239° Southwest 275 316 40,000 484 Climbing Salt Lake Center
Tue 02:25:31 PM 42.9272 -111.9492 239° Southwest 293 337 40,000  Level Salt Lake Center
Tue 02:26:33 PM 42.8811 -112.0550 239° Southwest 328 377 40,000  Level Salt Lake Center
Tue 02:27:35 PM 42.8322 -112.1675 239° Southwest 352 405 40,000  Level Salt Lake Center
Tue 02:28:37 PM 42.7719 -112.3033 239° Southwest 373 429 40,000  Level Salt Lake Center
Tue 02:29:39 PM 42.7181 -112.4225 238° Southwest 384 442 40,000  Level Salt Lake Center
Tue 02:30:41 PM 42.6572 -112.5625 239° Southwest 385 443 40,000  Level Salt Lake Center
Tue 02:31:43 PM 42.6025 -112.6847 239° Southwest 383 441 40,000  Level Salt Lake Center
Tue 02:32:45 PM 42.5481 -112.8075 239° Southwest 382 440 40,000  Level Salt Lake Center
Tue 02:33:47 PM 42.4928 -112.9289 238° Southwest 380 437 40,000  Level Salt Lake Center
Tue 02:34:49 PM 42.4278 -113.0719 238° Southwest 375 432 40,000  Level Salt Lake Center
Tue 02:35:51 PM 42.3717 -113.1956 238° Southwest 384 442 40,000  Level Salt Lake Center
Tue 02:36:52 PM 42.3175 -113.3144 238° Southwest 376 433 40,000  Level Salt Lake Center
Tue 02:37:54 PM 42.2628 -113.4353 239° Southwest 379 436 40,000  Level Salt Lake Center
Tue 02:38:56 PM 42.2069 -113.5550 238° Southwest 379 436 40,000  Level Salt Lake Center
Tue 02:39:58 PM 42.1550 -113.6783 240° Southwest 378 435 40,000  Level Salt Lake Center
Tue 02:41:00 PM 42.1050 -113.8356 247° West 382 440 40,000  Level Salt Lake Center
Tue 02:42:02 PM 42.0628 -113.9672 247° West 384 442 40,000  Level Salt Lake Center
Tue 02:43:04 PM 42.0211 -114.0972 247° West 380 437 40,000  Level Salt Lake Center
Tue 02:44:06 PM 41.9803 -114.2311 248° West 389 448 40,000  Level Salt Lake Center
Tue 02:45:08 PM 41.9378 -114.3619 246° West 385 443 40,000  Level Salt Lake Center
Tue 02:46:10 PM 41.8956 -114.4914 246° West 380 437 40,000  Level Salt Lake Center
Tue 02:47:11 PM 41.8464 -114.6419 246° West 387 445 40,000  Level Salt Lake Center
Tue 02:48:13 PM 41.8025 -114.7653 245° Southwest 384 442 40,000  Level Salt Lake Center
Tue 02:49:15 PM 41.7539 -114.9117 246° West 385 443 40,000  Level Salt Lake Center
Tue 02:50:17 PM 41.7136 -115.0381 247° West 386 444 40,000  Level Salt Lake Center
Tue 02:51:19 PM 41.6647 -115.1825 246° West 383 441 40,000  Level Salt Lake Center
Tue 02:52:21 PM 41.6217 -115.3072 245° Southwest 385 443 40,000  Level Salt Lake Center
Tue 02:53:22 PM 41.5731 -115.4531 246° West 386 444 40,000  Level Salt Lake Center
Tue 02:54:24 PM 41.5303 -115.5781 245° Southwest 387 445 40,000  Level Salt Lake Center
Tue 02:55:26 PM 41.4883 -115.7044 246° West 388 447 40,000  Level Salt Lake Center
Tue 02:56:28 PM 41.4383 -115.8478 245° Southwest 385 443 40,000  Level Salt Lake Center
Tue 02:57:29 PM 41.3950 -115.9714 245° Southwest 384 442 40,000  Level Salt Lake Center
Tue 02:58:31 PM 41.3450 -116.1169 245° Southwest 386 444 40,000  Level Salt Lake Center
Tue 02:59:33 PM 41.3028 -116.2436 246° West 389 448 40,000  Level Salt Lake Center
Tue 03:00:35 PM 41.2531 -116.3897 246° West 391 450 40,000  Level Salt Lake Center
Tue 03:01:37 PM 41.2089 -116.5147 245° Southwest 390 449 40,000  Level Salt Lake Center
Tue 03:02:38 PM 41.1564 -116.6578 244° Southwest 388 447 40,000  Level Salt Lake Center
Tue 03:03:40 PM 41.1125 -116.7822 245° Southwest 389 448 40,000  Level Salt Lake Center
Tue 03:04:42 PM 41.0689 -116.9069 245° Southwest 390 449 40,000  Level Salt Lake Center
Tue 03:05:44 PM 41.0158 -117.0508 244° Southwest 390 449 40,000  Level Salt Lake Center
Tue 03:06:45 PM 40.9717 -117.1744 245° Southwest 391 450 40,000  Level Salt Lake Center
Tue 03:07:47 PM 40.9203 -117.3181 245° Southwest 389 448 40,000  Level Salt Lake Center
Tue 03:08:49 PM 40.8753 -117.4436 245° Southwest 393 452 40,000  Level Salt Lake Center
Tue 03:09:51 PM 40.8231 -117.5872 244° Southwest 392 451 40,000  Level Salt Lake Center
Tue 03:10:52 PM 40.7767 -117.7106 244° Southwest 392 451 40,000  Level Salt Lake Center
Tue 03:11:55 PM 40.7231 -117.8550 244° Southwest 393 452 40,000  Level Salt Lake Center
Tue 03:12:56 PM 40.6792 -117.9789 245° Southwest 393 452 40,000  Level Salt Lake Center
Tue 03:13:58 PM 40.6253 -118.1200 243° Southwest 388 447 40,000  Level Salt Lake Center
Tue 03:14:59 PM 40.5792 -118.2428 244° Southwest 390 449 40,000  Level Salt Lake Center
Tue 03:16:01 PM 40.5328 -118.3642 243° Southwest 389 448 40,000  Level Salt Lake Center
Tue 03:17:03 PM 40.4803 -118.5078 244° Southwest 391 450 40,000  Level Salt Lake Center
Tue 03:18:04 PM 40.4342 -118.6292 244° Southwest 390 449 40,000  Level Salt Lake Center
Tue 03:19:06 PM 40.3797 -118.7714 243° Southwest 390 449 40,000  Level Salt Lake Center
Tue 03:20:08 PM 40.3347 -118.8917 244° Southwest 387 445 40,000  Level Salt Lake Center
Tue 03:21:10 PM 40.2828 -119.0264 243° Southwest 384 442 40,000  Level Salt Lake Center
Tue 03:22:11 PM 40.2344 -119.1511 243° Southwest 385 443 40,000  Level Salt Lake Center
Tue 03:23:13 PM 40.1858 -119.2764 243° Southwest 387 445 40,000  Level Salt Lake Center
Tue 03:24:15 PM 40.1369 -119.4022 243° Southwest 389 448 40,000  Level Salt Lake Center
Tue 03:25:22 PM 40.0783 -119.5539 243° Southwest 390 449 40,000  Level Oakland Center
Tue 03:26:24 PM 40.0292 -119.6800 243° Southwest 392 451 40,000  Level Oakland Center
Tue 03:27:25 PM 39.9808 -119.8022 243° Southwest 383 441 40,000  Level Oakland Center
Tue 03:28:26 PM 39.9317 -119.9281 243° Southwest 390 449 40,000  Level Oakland Center
Tue 03:29:28 PM 39.8817 -120.0533 243° Southwest 391 450 40,000  Level Oakland Center
Tue 03:30:29 PM 39.8225 -120.2003 242° Southwest 389 448 40,000  Level Oakland Center
Tue 03:31:30 PM 39.7703 -120.3264 242° Southwest 393 452 40,000  Level Oakland Center
Tue 03:32:32 PM 39.7217 -120.4533 244° Southwest 393 452 40,000  Level Oakland Center
Tue 03:33:33 PM 39.6711 -120.5772 242° Southwest 391 450 40,000  Level Oakland Center
Tue 03:34:34 PM 39.6203 -120.7036 242° Southwest 394 453 40,000  Level Oakland Center
Tue 03:35:36 PM 39.5686 -120.8267 241° Southwest 391 450 40,000  Level Oakland Center
Tue 03:36:37 PM 39.4953 -120.9336 228° Southwest 395 455 40,000  Level Oakland Center
Tue 03:37:38 PM 39.4217 -121.0364 227° Southwest 393 452 40,000  Level Oakland Center
Tue 03:38:40 PM 39.3467 -121.1403 227° Southwest 394 453 40,000  Level Oakland Center
Tue 03:39:41 PM 39.2581 -121.2661 228° Southwest 396 456 40,000  Level Oakland Center
Tue 03:40:43 PM 39.1831 -121.3700 227° Southwest 397 457 40,000  Level Oakland Center
Tue 03:41:44 PM 39.1081 -121.4750 227° Southwest 399 459 40,000  Level Oakland Center
Tue 03:42:46 PM 39.0322 -121.5797 227° Southwest 401 461 40,000 -341 Level Oakland Center
Tue 03:43:47 PM 38.9569 -121.6833 227° Southwest 399 459 39,300 -1,377 Descending Oakland Center
Tue 03:44:48 PM 38.8833 -121.7847 227° Southwest 394 453 37,200 -1,951 Descending Oakland Center
Tue 03:45:50 PM 38.8125 -121.8819 227° Southwest 379 436 35,300 -2,146 Descending Oakland Center
Tue 03:46:51 PM 38.7219 -122.0033 226° Southwest 394 453 32,800 -2,146 Descending Oakland Center
Tue 03:47:53 PM 38.6569 -122.0931 227° Southwest 399 459 30,900 -1,951 Descending Oakland Center
Tue 03:48:54 PM 38.5811 -122.1958 227° Southwest 400 460 28,800 -2,361 Descending Oakland Center
Tue 03:49:55 PM 38.4881 -122.3200 226° Southwest 403 464 26,100 -2,341 Descending Oakland Center
Tue 03:50:57 PM 38.4117 -122.4236 227° Southwest 402 463 24,000 -2,049 Descending Oakland Center
Tue 03:51:58 PM 38.3392 -122.5203 226° Southwest 384 442 21,900 -1,463 Descending Oakland Center
Tue 03:53:00 PM 38.2703 -122.6133 227° Southwest 366 421 21,000 -1,220 Descending Oakland Center
Tue 03:54:01 PM 38.2017 -122.7056 227° Southwest 363 418 19,400 -1,869 Descending Oakland Center
Tue 03:55:02 PM 38.1189 -122.7783 215° Southwest 367 422 17,200 -2,732 Descending Oakland Center
Tue 03:56:04 PM 37.9978 -122.7678 176° South 375 432 13,800 -2,732 Descending Oakland Center
Tue 03:57:05 PM 37.9172 -122.6928 144° Southeast 369 425 11,600 -1,377 Descending Oakland Center
Tue 03:58:06 PM 37.8431 -122.6122 139° Southeast 368 423 11,000 -293 Descending Oakland Center
Tue 03:59:08 PM 37.7669 -122.5322 140° Southeast 364 419 11,000  Level Oakland Center
Tue 04:00:09 PM 37.7222 -122.4403 122° Southeast 309 356 11,000 -629 Level Oakland Center
Tue 04:00:53 PM 37.7000 -122.3500 107° East 266 306 9,900 -1,731 Descending Northern Cal TRACON
Tue 04:01:53 PM 37.6667 -122.2667 117° Southeast 269 310 8,000 -1,800 Descending Northern Cal TRACON
Tue 04:02:53 PM 37.6500 -122.1833 104° East 249 287 6,300 -1,050 Descending Northern Cal TRACON
Tue 04:03:53 PM 37.6167 -122.1333 130° Southeast 198 228 5,900 -626 Descending Northern Cal TRACON
Tue 04:04:48 PM 37.5667 -122.1167 165° South 219 252 5,100 -783 Descending Northern Cal TRACON
Tue 04:05:48 PM 37.5667 -122.1833 270° West 180 207 4,400 -950 Descending Northern Cal TRACON
Tue 04:06:48 PM 37.5667 -122.2500 270° West 157 181 3,200 -1,333 Descending Northern Cal TRACON
Tue 04:07:18 PM 37.5764 -122.2692 303° West 173 199 2,400 -1,435 Descending Oakland Center
Tue 04:08:20 PM 37.5983 -122.3197 299° West 168 193 1,000 -976 Descending Oakland Center
Tue 04:09:21 PM 37.6125 -122.3567 296° West 139 160 400 -590 Descending Oakland Center

Login

Don't have an account? Register now (free) for customized features, flight alerts, and more!